createdAt,value
2023-04-29T00:00:57.548Z,94559.44
2023-04-29T00:03:29.115Z,94560.56
2023-04-29T00:05:58.412Z,94567.41
2023-04-29T00:08:26.446Z,94553.56
2023-04-29T00:10:54.225Z,94549.75
2023-04-29T00:13:22.043Z,94563.34
2023-04-29T00:15:50.525Z,94572.31
2023-04-29T00:18:18.144Z,94563.34
2023-04-29T00:20:45.811Z,94559.56
2023-04-29T00:23:14.828Z,94551.97
2023-04-29T00:25:42.483Z,94562.59
2023-04-29T00:28:10.137Z,94556.34
2023-04-29T00:30:37.793Z,94553.38
2023-04-29T00:33:05.485Z,94556.63
2023-04-29T00:35:33.225Z,94553.66
2023-04-29T00:38:00.987Z,94555.81
2023-04-29T00:40:30.403Z,94550.09
2023-04-29T00:42:58.179Z,94544.41
2023-04-29T00:45:26.049Z,94552.09
2023-04-29T00:47:53.776Z,94548.06
2023-04-29T00:50:22.934Z,94542.38
2023-04-29T00:52:50.575Z,94539.09
2023-04-29T00:55:18.642Z,94543.47
2023-04-29T00:57:50.070Z,94542.41
2023-04-29T01:00:17.821Z,94545.94
2023-04-29T01:02:46.239Z,94549.47
2023-04-29T01:05:15.114Z,94548.97
2023-04-29T01:07:47.236Z,94548.47
2023-04-29T01:10:17.926Z,94546.31
2023-04-29T01:12:50.802Z,94556.94
2023-04-29T01:15:23.565Z,94547.97
2023-04-29T01:17:53.296Z,94545.50
2023-04-29T01:20:22.271Z,94547.97
2023-04-29T01:22:49.992Z,94551.75
2023-04-29T01:25:19.541Z,94553.41
2023-04-29T01:27:54.530Z,94551.50
2023-04-29T01:30:30.058Z,94557.75
2023-04-29T01:33:02.525Z,94550.97
2023-04-29T01:35:41.727Z,94552.06
2023-04-29T01:38:18.839Z,94552.66
2023-04-29T01:40:54.819Z,94550.47
2023-04-29T01:43:24.702Z,94557.81
2023-04-29T01:45:53.760Z,94551.03
2023-04-29T01:48:21.889Z,94554.31
2023-04-29T01:50:49.559Z,94546.69
2023-04-29T01:53:17.167Z,94545.38
2023-04-29T01:55:44.890Z,94538.88
2023-04-29T01:58:13.912Z,94545.38
2023-04-29T02:00:42.578Z,94539.97
2023-04-29T02:03:10.333Z,94540.53
2023-04-29T02:05:38.094Z,94538.41
2023-04-29T02:08:07.506Z,94534.59
2023-04-29T02:10:35.324Z,94532.97
2023-04-29T02:13:03.063Z,94536.75
2023-04-29T02:15:32.076Z,94544.38
2023-04-29T02:17:59.811Z,94545.94
2023-04-29T02:20:27.489Z,94548.66
2023-04-29T02:22:55.143Z,94553.56
2023-04-29T02:25:22.905Z,94542.16
2023-04-29T02:27:50.559Z,94540.25
2023-04-29T02:30:18.319Z,94550.31
2023-04-29T02:32:47.410Z,94548.41
2023-04-29T02:35:15.287Z,94550.31
2023-04-29T02:37:42.908Z,94551.94
2023-04-29T02:40:11.317Z,94547.09
2023-04-29T02:42:39.006Z,94548.72
2023-04-29T02:45:08.001Z,94538.91
2023-04-29T02:47:35.655Z,94546.81
2023-04-29T02:50:05.658Z,94544.91
2023-04-29T02:52:33.319Z,94552.84
2023-04-29T02:55:00.987Z,94547.63
2023-04-29T02:57:29.578Z,94548.72
2023-04-29T02:59:57.460Z,94553.59
2023-04-29T03:02:25.250Z,94559.56
2023-04-29T03:04:53.125Z,94551.94
2023-04-29T03:07:22.139Z,94561.22
2023-04-29T03:09:49.849Z,94551.13
2023-04-29T03:12:17.731Z,94547.34
2023-04-29T03:14:45.352Z,94557.94
2023-04-29T03:17:13.144Z,94555.47
2023-04-29T03:19:40.831Z,94547.53
2023-04-29T03:22:10.554Z,94553.81
2023-04-29T03:24:39.848Z,94549.72
2023-04-29T03:27:07.478Z,94549.72
2023-04-29T03:29:35.132Z,94548.63
2023-04-29T03:32:03.078Z,94553.50
2023-04-29T03:34:31.272Z,94550.22
2023-04-29T03:36:59.061Z,94546.41
2023-04-29T03:39:28.219Z,94552.94
2023-04-29T03:41:57.252Z,94553.44
2023-04-29T03:44:25.239Z,94556.19
2023-04-29T03:46:52.980Z,94560.81
2023-04-29T03:49:20.613Z,94557.75
2023-04-29T03:51:48.277Z,94557.94
2023-04-29T03:54:16.111Z,94558.25
2023-04-29T03:56:43.834Z,94556.28
2023-04-29T03:59:12.859Z,94559.50
2023-04-29T04:01:40.665Z,94562.72
2023-04-29T04:04:08.577Z,94557.53
2023-04-29T04:06:36.384Z,94556.72
2023-04-29T04:09:04.070Z,94557.84
2023-04-29T04:11:31.736Z,94559.75
2023-04-29T04:13:59.421Z,94559.44
2023-04-29T04:16:28.493Z,94560.25
2023-04-29T04:18:56.288Z,94558.09
2023-04-29T04:21:23.971Z,94560.88
2023-04-29T04:23:51.591Z,94563.34
2023-04-29T04:26:20.567Z,94551.69
2023-04-29T04:28:48.199Z,94559.34
2023-04-29T04:31:15.903Z,94559.41
2023-04-29T04:33:44.945Z,94565.41
2023-04-29T04:36:12.643Z,94569.78
2023-04-29T04:38:40.349Z,94565.22
2023-04-29T04:41:08.469Z,94565.50
2023-04-29T04:43:36.138Z,94561.72
2023-04-29T04:46:11.358Z,94565.00
2023-04-29T04:48:39.061Z,94564.50
2023-04-29T04:51:10.989Z,94566.16
2023-04-29T04:53:38.976Z,94568.91
2023-04-29T04:56:07.538Z,94567.56
2023-04-29T04:58:35.185Z,94569.22
2023-04-29T05:01:02.930Z,94560.78
2023-04-29T05:03:30.908Z,94565.72
2023-04-29T05:05:59.629Z,94572.28
2023-04-29T05:08:28.618Z,94577.22
2023-04-29T05:10:56.713Z,94577.53
2023-04-29T05:13:25.438Z,94584.09
2023-04-29T05:15:53.090Z,94576.78
2023-04-29T05:18:20.843Z,94573.84
2023-04-29T05:20:48.491Z,94580.72
2023-04-29T05:23:16.111Z,94585.38
2023-04-29T05:25:45.260Z,94587.59
2023-04-29T05:28:12.935Z,94596.91
2023-04-29T05:30:41.006Z,94593.38
2023-04-29T05:33:08.805Z,94598.31
2023-04-29T05:35:36.686Z,94598.94
2023-04-29T05:38:04.435Z,94599.78
2023-04-29T05:40:32.100Z,94608.25
2023-04-29T05:43:01.133Z,94611.84
2023-04-29T05:45:29.090Z,94617.59
2023-04-29T05:47:56.832Z,94618.72
2023-04-29T05:50:24.642Z,94619.28
2023-04-29T05:52:54.620Z,94617.44
2023-04-29T05:55:22.533Z,94621.59
2023-04-29T05:57:50.359Z,94613.72
2023-04-29T06:00:19.582Z,94621.66
2023-04-29T06:02:57.524Z,94622.78
2023-04-29T06:05:27.036Z,94622.28
2023-04-29T06:07:55.220Z,94620.97
2023-04-29T06:10:22.882Z,94629.75
2023-04-29T06:12:51.718Z,94633.31
2023-04-29T06:15:21.052Z,94631.97
2023-04-29T06:17:48.732Z,94654.06
2023-04-29T06:20:17.663Z,94654.88
2023-04-29T06:22:46.291Z,94660.63
2023-04-29T06:25:14.119Z,94659.31
2023-04-29T06:27:41.875Z,94656.34
2023-04-29T06:30:10.513Z,94659.66
2023-04-29T06:32:39.694Z,94663.22
2023-04-29T06:35:08.310Z,94671.16
2023-04-29T06:37:37.935Z,94670.31
2023-04-29T06:40:07.132Z,94675.53
2023-04-29T06:42:34.733Z,94672.84
2023-04-29T06:45:02.466Z,94672.34
2023-04-29T06:47:30.133Z,94683.00
2023-04-29T06:49:59.257Z,94683.31
2023-04-29T06:52:26.850Z,94683.31
2023-04-29T06:54:54.463Z,94690.16
2023-04-29T06:57:22.261Z,94685.03
2023-04-29T06:59:50.227Z,94682.81
2023-04-29T07:02:17.921Z,94691.31
2023-04-29T07:04:45.735Z,94687.72
2023-04-29T07:07:14.732Z,94693.69
2023-04-29T07:09:42.384Z,94693.69
2023-04-29T07:12:10.045Z,94695.00
2023-04-29T07:14:37.785Z,94695.31
2023-04-29T07:17:05.469Z,94693.56
2023-04-29T07:19:33.142Z,94709.81
2023-04-29T07:22:00.755Z,94698.25
2023-04-29T07:24:29.756Z,94692.91
2023-04-29T07:26:57.356Z,94698.44
2023-04-29T07:29:25.115Z,94704.66
2023-04-29T07:31:53.093Z,94706.13
2023-04-29T07:34:20.731Z,94705.53
2023-04-29T07:36:48.385Z,94703.66
2023-04-29T07:39:16.923Z,94702.19
2023-04-29T07:41:46.053Z,94715.88
2023-04-29T07:44:13.731Z,94713.19
2023-04-29T07:46:41.940Z,94708.56
2023-04-29T07:49:10.332Z,94710.41
2023-04-29T07:51:37.956Z,94707.56
2023-04-29T07:54:05.738Z,94703.00
2023-04-29T07:56:33.325Z,94714.88
2023-04-29T07:59:02.333Z,94698.63
2023-04-29T08:01:30.035Z,94709.91
2023-04-29T08:03:57.991Z,94707.63
2023-04-29T08:06:25.929Z,94714.09
2023-04-29T08:08:53.601Z,94711.06
2023-04-29T08:11:22.350Z,94724.75
2023-04-29T08:13:50.030Z,94707.22
2023-04-29T08:16:19.377Z,94702.59
2023-04-29T08:18:47.319Z,94699.13
2023-04-29T08:21:14.994Z,94708.19
2023-04-29T08:23:42.699Z,94698.88
2023-04-29T08:26:12.843Z,94714.13
2023-04-29T08:28:40.582Z,94712.19
2023-04-29T08:31:08.421Z,94704.53
2023-04-29T08:33:37.890Z,94706.13
2023-04-29T08:36:06.318Z,94706.81
2023-04-29T08:38:33.960Z,94710.91
2023-04-29T08:41:02.303Z,94713.00
2023-04-29T08:43:30.466Z,94714.09
2023-04-29T08:45:59.745Z,94709.13
2023-04-29T08:48:29.296Z,94704.69
2023-04-29T08:50:58.527Z,94711.69
2023-04-29T08:53:26.733Z,94706.69
2023-04-29T08:55:56.367Z,94714.16
2023-04-29T08:58:25.392Z,94713.16
2023-04-29T09:00:53.405Z,94715.88
2023-04-29T09:03:28.250Z,94719.28
2023-04-29T09:05:57.920Z,94721.25
2023-04-29T09:08:25.832Z,94720.72
2023-04-29T09:10:54.014Z,94726.22
2023-04-29T09:13:26.280Z,94723.13
2023-04-29T09:15:54.360Z,94718.97
2023-04-29T09:18:42.705Z,94720.13
2023-04-29T09:21:22.057Z,94716.81
2023-04-29T09:23:51.533Z,94715.81
2023-04-29T09:26:19.363Z,94715.22
2023-04-29T09:28:47.877Z,94717.88
2023-04-29T09:31:15.813Z,94714.94
2023-04-29T09:33:53.789Z,94722.63
2023-04-29T09:36:38.453Z,94716.19
2023-04-29T09:39:11.314Z,94713.34
2023-04-29T09:42:02.604Z,94717.06
2023-04-29T09:44:34.452Z,94724.41
2023-04-29T09:47:03.912Z,94720.56
2023-04-29T09:49:35.658Z,94717.38
2023-04-29T09:52:05.888Z,94713.72
2023-04-29T09:54:36.247Z,94714.00
2023-04-29T09:57:05.934Z,94719.81
2023-04-29T09:59:36.162Z,94715.72
2023-04-29T10:02:09.322Z,94708.94
2023-04-29T10:04:40.791Z,94720.66
2023-04-29T10:07:09.931Z,94712.59
2023-04-29T10:09:39.027Z,94714.50
2023-04-29T10:12:08.491Z,94701.78
2023-04-29T10:14:40.874Z,94698.03
2023-04-29T10:17:12.755Z,94709.19
2023-04-29T10:19:41.341Z,94705.44
2023-04-29T10:22:14.089Z,94706.72
2023-04-29T10:24:42.079Z,94702.47
2023-04-29T10:27:12.283Z,94702.63
2023-04-29T10:29:41.579Z,94705.00
2023-04-29T10:32:10.871Z,94702.56
2023-04-29T10:34:40.515Z,94699.44
2023-04-29T10:37:11.406Z,94698.97
2023-04-29T10:39:45.234Z,94694.56
2023-04-29T10:42:18.476Z,94700.94
2023-04-29T10:45:19.556Z,94692.50
2023-04-29T10:48:11.925Z,94701.22
2023-04-29T10:51:09.463Z,94703.84
2023-04-29T10:54:02.083Z,94703.72
2023-04-29T10:56:38.218Z,94703.13
2023-04-29T10:59:05.979Z,94701.94
2023-04-29T11:01:45.503Z,94700.91
2023-04-29T11:04:13.538Z,94689.69
2023-04-29T11:06:43.424Z,94687.00
2023-04-29T11:09:18.211Z,94683.53
2023-04-29T11:12:00.598Z,94688.66
2023-04-29T11:14:31.438Z,94680.69
2023-04-29T11:17:00.463Z,94688.84
2023-04-29T11:19:33.007Z,94683.06
2023-04-29T11:22:12.292Z,94691.00
2023-04-29T11:24:52.224Z,94690.22
2023-04-29T11:27:22.859Z,94688.78
2023-04-29T11:29:51.343Z,94689.94
2023-04-29T11:32:21.776Z,94689.94
2023-04-29T11:34:49.518Z,94703.56
2023-04-29T11:37:21.616Z,94693.59
2023-04-29T11:39:50.801Z,94697.50
2023-04-29T11:42:23.730Z,94697.44
2023-04-29T11:44:56.763Z,94698.88
2023-04-29T11:47:27.831Z,94701.75
2023-04-29T11:49:55.832Z,94702.75
2023-04-29T11:52:23.512Z,94699.38
2023-04-29T11:54:52.998Z,94705.00
2023-04-29T11:57:20.925Z,94706.31
2023-04-29T11:59:48.533Z,94707.06
2023-04-29T12:02:16.238Z,94710.16
2023-04-29T12:04:47.877Z,94710.84
2023-04-29T12:07:16.770Z,94714.16
2023-04-29T12:09:44.906Z,94714.69
2023-04-29T12:12:15.890Z,94712.31
2023-04-29T12:14:44.041Z,94713.56
2023-04-29T12:17:11.909Z,94708.53
2023-04-29T12:19:41.518Z,94705.97
2023-04-29T12:22:09.414Z,94705.09
2023-04-29T12:24:37.745Z,94704.91
2023-04-29T12:27:06.311Z,94701.63
2023-04-29T12:29:35.345Z,94699.66
2023-04-29T12:32:02.993Z,94695.81
2023-04-29T12:34:31.917Z,94707.25
2023-04-29T12:37:01.179Z,94708.06
2023-04-29T12:39:29.168Z,94699.88
2023-04-29T12:41:59.004Z,94706.81
2023-04-29T12:44:27.018Z,94698.44
2023-04-29T12:46:58.443Z,94699.44
2023-04-29T12:49:26.294Z,94697.59
2023-04-29T12:51:54.036Z,94694.53
2023-04-29T12:54:21.680Z,94702.03
2023-04-29T12:56:50.504Z,94700.59
2023-04-29T12:59:18.373Z,94706.53
2023-04-29T13:01:46.495Z,94707.47
2023-04-29T13:04:15.844Z,94707.66
2023-04-29T13:06:43.531Z,94710.31
2023-04-29T13:09:17.454Z,94700.94
2023-04-29T13:11:46.153Z,94712.78
2023-04-29T13:14:13.912Z,94707.19
2023-04-29T13:16:41.762Z,94695.06
2023-04-29T13:19:29.406Z,94692.69
2023-04-29T13:21:58.585Z,94696.09
2023-04-29T13:24:26.252Z,94695.09
2023-04-29T13:26:54.506Z,94687.19
2023-04-29T13:29:22.236Z,94688.84
2023-04-29T13:31:49.965Z,94685.88
2023-04-29T13:34:17.785Z,94690.66
2023-04-29T13:36:45.703Z,94693.72
2023-04-29T13:39:15.115Z,94691.88
2023-04-29T13:41:45.951Z,94689.25
2023-04-29T13:46:47.467Z,94684.53
2023-04-29T13:49:42.341Z,94687.44
2023-04-29T13:52:58.419Z,94690.19
2023-04-29T13:55:12.365Z,94684.88
2023-04-29T13:58:31.123Z,94699.28
2023-04-29T14:05:26.480Z,94698.63
2023-04-29T14:07:54.348Z,94696.50
2023-04-29T14:10:23.541Z,94701.94
2023-04-29T14:12:51.180Z,94708.78
2023-04-29T14:15:18.969Z,94701.75
2023-04-29T14:17:46.586Z,94711.19
2023-04-29T14:20:14.920Z,94714.75
2023-04-29T14:22:42.616Z,94711.81
2023-04-29T14:25:12.407Z,94715.38
2023-04-29T14:27:42.015Z,94718.41
2023-04-29T14:30:10.478Z,94722.53
2023-04-29T14:32:38.251Z,94727.88
2023-04-29T14:35:06.722Z,94726.38
2023-04-29T14:37:34.397Z,94725.91
2023-04-29T14:40:02.052Z,94724.94
2023-04-29T14:42:29.685Z,94726.16
2023-04-29T14:44:58.699Z,94727.66
2023-04-29T14:47:26.423Z,94726.97
2023-04-29T14:49:54.121Z,94721.81
2023-04-29T14:52:21.751Z,94725.59
2023-04-29T14:54:49.690Z,94723.84
2023-04-29T14:57:17.279Z,94734.09
2023-04-29T14:59:45.079Z,94738.72
2023-04-29T15:02:14.091Z,94737.25
2023-04-29T15:04:45.734Z,94746.72
2023-04-29T15:07:13.630Z,94744.09
2023-04-29T15:09:41.368Z,94746.22
2023-04-29T15:12:09.494Z,94746.66
2023-04-29T15:14:37.318Z,94754.84
2023-04-29T15:17:04.993Z,94753.59
2023-04-29T15:19:33.991Z,94760.69
2023-04-29T15:22:01.610Z,94759.53
2023-04-29T15:24:29.264Z,94757.16
2023-04-29T15:26:56.980Z,94751.88
2023-04-29T15:29:24.611Z,94758.16
2023-04-29T15:31:52.320Z,94759.31
2023-04-29T15:34:20.060Z,94758.84
2023-04-29T15:36:49.871Z,94767.59
2023-04-29T15:39:17.732Z,94768.81
2023-04-29T15:41:45.373Z,94766.81
2023-04-29T15:44:12.989Z,94768.88
2023-04-29T15:46:40.672Z,94767.88
2023-04-29T15:49:08.330Z,94775.50
2023-04-29T15:51:35.986Z,94773.69
2023-04-29T15:54:05.486Z,94778.47
2023-04-29T15:56:33.125Z,94782.78
2023-04-29T15:59:00.760Z,94788.91
2023-04-29T16:01:29.100Z,94787.44
2023-04-29T16:03:56.799Z,94785.53
2023-04-29T16:06:24.632Z,94787.53
2023-04-29T16:08:52.315Z,94788.91
2023-04-29T16:11:21.618Z,94798.00
2023-04-29T16:13:49.703Z,94794.59
2023-04-29T16:16:17.913Z,94796.94
2023-04-29T16:18:46.167Z,94793.84
2023-04-29T16:21:13.941Z,94798.88
2023-04-29T16:23:41.620Z,94808.16
2023-04-29T16:26:09.596Z,94815.09
2023-04-29T16:28:38.703Z,94812.72
2023-04-29T16:31:06.361Z,94811.03
2023-04-29T16:33:34.032Z,94805.69
2023-04-29T16:36:02.991Z,94812.09
2023-04-29T16:38:30.723Z,94813.72
2023-04-29T16:40:58.339Z,94814.59
2023-04-29T16:43:25.984Z,94823.06
2023-04-29T16:45:55.025Z,94822.31
2023-04-29T16:48:22.723Z,94818.69
2023-04-29T16:50:50.636Z,94826.59
2023-04-29T16:53:18.435Z,94828.44
2023-04-29T16:55:46.578Z,94822.41
2023-04-29T16:58:14.260Z,94841.28
2023-04-29T17:00:41.896Z,94845.69
2023-04-29T17:03:11.066Z,94845.25
2023-04-29T17:05:38.813Z,94841.47
2023-04-29T17:08:06.642Z,94845.59
2023-04-29T17:10:34.366Z,94852.22
2023-04-29T17:13:02.005Z,94854.72
2023-04-29T17:15:29.717Z,94855.28
2023-04-29T17:17:57.532Z,94852.81
2023-04-29T17:20:27.089Z,94850.94
2023-04-29T17:22:54.778Z,94852.06
2023-04-29T17:25:23.512Z,94861.91
2023-04-29T17:27:51.138Z,94860.84
2023-04-29T17:30:19.012Z,94869.88
2023-04-29T17:32:49.331Z,94872.31
2023-04-29T17:35:17.132Z,94866.03
2023-04-29T17:37:46.828Z,94876.69
2023-04-29T17:40:15.101Z,94872.31
2023-04-29T17:42:42.724Z,94869.28
2023-04-29T17:45:11.556Z,94872.84
2023-04-29T17:47:39.599Z,94872.84
2023-04-29T17:50:08.440Z,94886.28
2023-04-29T17:52:36.377Z,94886.56
2023-04-29T17:55:06.134Z,94890.91
2023-04-29T17:57:33.970Z,94895.56
2023-04-29T18:00:01.806Z,94898.31
2023-04-29T18:02:29.531Z,94904.59
2023-04-29T18:04:57.764Z,94908.13
2023-04-29T18:07:25.546Z,94906.19
2023-04-29T18:09:53.537Z,94913.81
2023-04-29T18:12:24.144Z,94912.69
2023-04-29T18:14:52.717Z,94919.81
2023-04-29T18:17:20.670Z,94921.75
2023-04-29T18:19:49.598Z,94917.13
2023-04-29T18:22:17.353Z,94919.31
2023-04-29T18:24:45.172Z,94922.06
2023-04-29T18:27:12.892Z,94922.53
2023-04-29T18:29:42.299Z,94916.50
2023-04-29T18:32:10.127Z,94923.34
2023-04-29T18:34:37.835Z,94923.13
2023-04-29T18:37:05.526Z,94927.22
2023-04-29T18:39:33.195Z,94924.22
2023-04-29T18:42:00.813Z,94929.16
2023-04-29T18:44:28.968Z,94929.66
2023-04-29T18:46:57.994Z,94935.06
2023-04-29T18:49:25.668Z,94933.16
2023-04-29T18:51:53.431Z,94930.19
2023-04-29T18:54:21.151Z,94934.59
2023-04-29T18:56:50.191Z,94942.94
2023-04-29T18:59:19.630Z,94947.59
2023-04-29T19:01:47.851Z,94954.91
2023-04-29T19:04:17.653Z,94966.72
2023-04-29T19:06:45.632Z,94963.22
2023-04-29T19:09:13.586Z,94964.03
2023-04-29T19:11:41.414Z,94960.78
2023-04-29T19:14:09.072Z,94965.16
2023-04-29T19:16:37.344Z,94968.13
2023-04-29T19:19:05.312Z,94978.75
2023-04-29T19:21:34.313Z,94978.22
2023-04-29T19:24:02.001Z,94979.06
2023-04-29T19:26:32.839Z,94988.34
2023-04-29T19:29:02.377Z,94990.47
2023-04-29T19:31:30.054Z,94985.81
2023-04-29T19:33:57.751Z,95003.22
2023-04-29T19:36:25.864Z,94989.06
2023-04-29T19:38:54.981Z,94982.81
2023-04-29T19:41:22.773Z,94990.88
2023-04-29T19:43:50.684Z,94993.09
2023-04-29T19:46:18.416Z,94997.44
2023-04-29T19:48:46.207Z,94994.13
2023-04-29T19:51:13.879Z,94997.53
2023-04-29T19:53:41.813Z,94996.66
2023-04-29T19:56:10.863Z,94998.25
2023-04-29T19:58:38.560Z,95006.81
2023-04-29T20:01:06.540Z,95010.78
2023-04-29T20:03:36.091Z,95009.59
2023-04-29T20:06:04.259Z,95016.16
2023-04-29T20:08:31.980Z,95016.22
2023-04-29T20:11:00.771Z,95014.00
2023-04-29T20:13:29.823Z,95016.75
2023-04-29T20:15:57.527Z,95015.41
2023-04-29T20:18:25.254Z,95016.25
2023-04-29T20:20:53.021Z,95005.84
2023-04-29T20:23:21.086Z,95011.59
2023-04-29T20:25:48.890Z,95009.59
2023-04-29T20:28:16.629Z,95009.88
2023-04-29T20:30:45.901Z,95008.56
2023-04-29T20:33:13.616Z,95020.19
2023-04-29T20:35:41.351Z,95007.66
2023-04-29T20:38:09.041Z,95011.03
2023-04-29T20:40:36.842Z,95009.69
2023-04-29T20:43:04.630Z,95003.47
2023-04-29T20:45:32.430Z,95009.44
2023-04-29T20:48:01.608Z,95008.94
2023-04-29T20:50:29.343Z,95006.19
2023-04-29T20:52:57.033Z,95020.41
2023-04-29T20:55:25.247Z,95012.22
2023-04-29T20:57:53.414Z,95017.69
2023-04-29T21:00:21.533Z,95018.84
2023-04-29T21:02:49.341Z,95026.44
2023-04-29T21:05:18.571Z,95026.44
2023-04-29T21:07:46.379Z,95036.84
2023-04-29T21:10:14.260Z,95034.94
2023-04-29T21:12:41.985Z,95037.81
2023-04-29T21:15:10.435Z,95039.50
2023-04-29T21:17:38.315Z,95044.94
2023-04-29T21:20:08.719Z,95043.78
2023-04-29T21:22:37.730Z,95045.44
2023-04-29T21:25:06.423Z,95052.75
2023-04-29T21:27:35.927Z,95050.59
2023-04-29T21:30:04.806Z,95046.22
2023-04-29T21:32:33.627Z,95054.06
2023-04-29T21:35:01.592Z,95051.41
2023-04-29T21:37:30.516Z,95058.84
2023-04-29T21:40:00.406Z,95053.88
2023-04-29T21:42:28.199Z,95054.78
2023-04-29T21:44:56.103Z,95055.03
2023-04-29T21:47:24.356Z,95049.00
2023-04-29T21:49:53.138Z,95047.44
2023-04-29T21:52:21.391Z,95040.88
2023-04-29T21:54:49.369Z,95051.22
2023-04-29T21:57:21.987Z,95047.94
2023-04-29T21:59:54.419Z,95047.63
2023-04-29T22:02:25.073Z,95054.72
2023-04-29T22:04:53.413Z,95044.97
2023-04-29T22:07:22.867Z,95041.16
2023-04-29T22:09:50.672Z,95046.16
2023-04-29T22:12:20.590Z,95043.47
2023-04-29T22:14:48.390Z,95038.84
2023-04-29T22:17:16.053Z,95045.63
2023-04-29T22:19:43.685Z,95038.53
2023-04-29T22:22:11.358Z,95042.91
2023-04-29T22:24:39.262Z,95042.34
2023-04-29T22:27:06.954Z,95035.22
2023-04-29T22:29:36.528Z,95039.78
2023-04-29T22:32:04.511Z,95047.06
2023-04-29T22:34:32.398Z,95050.16
2023-04-29T22:37:00.161Z,95044.72
2023-04-29T22:39:28.822Z,95047.94
2023-04-29T22:41:56.845Z,95044.41
2023-04-29T22:44:24.859Z,95049.88
2023-04-29T22:46:53.973Z,95033.19
2023-04-29T22:49:21.707Z,95038.25
2023-04-29T22:51:49.925Z,95030.56
2023-04-29T22:54:21.716Z,95033.84
2023-04-29T22:56:49.866Z,95042.28
2023-04-29T22:59:18.018Z,95041.13
2023-04-29T23:01:46.248Z,95036.44
2023-04-29T23:04:16.102Z,95044.38
2023-04-29T23:06:43.977Z,95047.41
2023-04-29T23:09:11.673Z,95044.94
2023-04-29T23:11:39.396Z,95038.31
2023-04-29T23:14:08.304Z,95037.19
2023-04-29T23:16:36.355Z,95035.19
2023-04-29T23:19:06.004Z,95032.72
2023-04-29T23:21:35.835Z,95036.59
2023-04-29T23:24:04.778Z,95030.47
2023-04-29T23:26:32.742Z,95033.13
2023-04-29T23:29:01.082Z,95025.28
2023-04-29T23:31:29.579Z,95028.94
2023-04-29T23:33:57.664Z,95019.66
2023-04-29T23:36:26.108Z,95021.66
2023-04-29T23:38:55.136Z,95024.13
2023-04-29T23:41:22.806Z,95022.16
2023-04-29T23:43:50.616Z,95020.31
2023-04-29T23:46:18.577Z,95019.00
2023-04-29T23:48:46.286Z,95015.88
2023-04-29T23:51:14.288Z,95022.88
2023-04-29T23:53:42.208Z,95022.28
2023-04-29T23:56:11.942Z,95017.81
2023-04-29T23:58:39.609Z,95013.78
